Time;durP1;ratioP1;P1;durP2;ratioP2;P2;SDS_P1;SDS_P2;PMS_P1;PMS_P2;Temp;Humidity;BMP_temperature;BMP_pressure;BME280_temperature;BME280_humidity;BME280_pressure;Samples;Min_cycle;Max_cycle;Signal;HPM_P1;HPM_P2
2022/05/14 00:00:36;;;;;;;9.98;2.67;;;;;;;;;;5008038;28;99235;-75
2022/05/14 00:03:03;;;;;;;10.13;3.75;;;;;;;;;;5011079;28;99799;-75
2022/05/14 00:05:29;;;;;;;12.57;2.65;;;;;;;;;;5008791;28;98526;-74
2022/05/14 00:07:56;;;;;;;9.63;2.72;;;;;;;;;;5008790;28;99328;-75
2022/05/14 00:10:24;;;;;;;11.48;2.78;;;;;;;;;;5007763;28;100339;-75
2022/05/14 00:13:06;;;;;;;8.32;2.38;;;;;;;;;;5008755;28;99006;-75
2022/05/14 00:15:40;;;;;;;12.23;3.33;;;;;;;;;;5008729;28;102049;-74
2022/05/14 00:18:07;;;;;;;8.98;3.17;;;;;;;;;;5008392;28;99546;-75
2022/05/14 00:20:35;;;;;;;7.75;2.60;;;;;;;;;;5008560;28;98570;-75
2022/05/14 00:23:02;;;;;;;17.75;3.00;;;;;;;;;;5008244;28;100070;-75
2022/05/14 00:25:29;;;;;;;7.65;2.20;;;;;;;;;;5011109;28;101227;-75
2022/05/14 00:27:56;;;;;;;18.27;3.25;;;;;;;;;;5008647;28;101142;-75
2022/05/14 00:30:24;;;;;;;8.50;2.78;;;;;;;;;;5007766;28;99582;-76
2022/05/14 00:32:51;;;;;;;8.30;3.10;;;;;;;;;;5008794;28;98901;-75
2022/05/14 00:35:18;;;;;;;13.50;3.40;;;;;;;;;;5008723;28;99828;-74
2022/05/14 00:37:45;;;;;;;13.80;3.28;;;;;;;;;;5007552;28;99284;-75
2022/05/14 00:40:14;;;;;;;11.20;3.65;;;;;;;;;;5008594;28;98622;-75
2022/05/14 00:42:42;;;;;;;13.02;3.03;;;;;;;;;;4991361;28;101752;-75
2022/05/14 00:45:09;;;;;;;11.40;3.40;;;;;;;;;;5014149;28;99774;-75
2022/05/14 00:47:37;;;;;;;15.02;4.03;;;;;;;;;;5018097;28;99853;-74
2022/05/14 00:50:16;;;;;;;14.90;3.20;;;;;;;;;;4995998;28;100109;-75
2022/05/14 00:52:44;;;;;;;18.58;3.90;;;;;;;;;;5014502;28;98539;-75
2022/05/14 00:55:11;;;;;;;17.45;4.60;;;;;;;;;;5015389;28;99846;-75
2022/05/14 00:57:39;;;;;;;19.05;3.70;;;;;;;;;;5014578;28;99288;-75
2022/05/14 01:00:08;;;;;;;12.88;2.88;;;;;;;;;;4996610;28;98950;-74
2022/05/14 01:02:34;;;;;;;12.18;3.33;;;;;;;;;;4996538;28;102055;-74
2022/05/14 01:05:01;;;;;;;13.38;3.42;;;;;;;;;;5014948;28;99838;-75
2022/05/14 01:07:29;;;;;;;12.77;4.18;;;;;;;;;;4997125;28;97901;-75
2022/05/14 01:09:59;;;;;;;16.75;4.43;;;;;;;;;;4999992;28;101352;-75
2022/05/14 01:12:26;;;;;;;17.23;4.05;;;;;;;;;;4995909;28;98974;-75
2022/05/14 01:14:53;;;;;;;11.63;3.60;;;;;;;;;;5014636;28;99240;-74
2022/05/14 01:17:20;;;;;;;13.93;3.67;;;;;;;;;;4996786;28;102123;-74
2022/05/14 01:19:47;;;;;;;9.90;4.60;;;;;;;;;;4996311;28;98634;-75
2022/05/14 01:22:32;;;;;;;18.95;4.20;;;;;;;;;;4996709;28;101760;-75
2022/05/14 01:27:54;;;;;;;42.70;5.05;;;;;;;;;;4995451;28;98592;-74
2022/05/14 01:30:24;;;;;;;17.15;4.82;;;;;;;;;;4999337;28;101788;-74
2022/05/14 01:33:04;;;;;;;11.50;3.97;;;;;;;;;;4997103;28;97844;-74
2022/05/14 01:35:39;;;;;;;17.33;4.80;;;;;;;;;;4996620;28;98618;-74
2022/05/14 01:38:06;;;;;;;17.80;3.90;;;;;;;;;;4996292;28;100574;-74
2022/05/14 01:40:33;;;;;;;18.02;4.68;;;;;;;;;;5012932;28;99677;-74
2022/05/14 01:42:59;;;;;;;15.98;5.15;;;;;;;;;;4996347;28;101903;-73
2022/05/14 01:45:26;;;;;;;17.00;4.93;;;;;;;;;;4995811;28;100238;-74
2022/05/14 01:47:53;;;;;;;16.80;4.25;;;;;;;;;;4995778;28;98590;-74
2022/05/14 01:50:19;;;;;;;17.63;4.25;;;;;;;;;;4996497;28;101141;-74
2022/05/14 01:52:46;;;;;;;13.95;4.35;;;;;;;;;;4999250;28;100622;-76
2022/05/14 01:55:12;;;;;;;19.63;4.22;;;;;;;;;;4993015;28;100880;-76
2022/05/14 01:57:39;;;;;;;13.85;3.42;;;;;;;;;;5011087;28;98645;-76
2022/05/14 02:00:08;;;;;;;15.25;4.63;;;;;;;;;;4993016;28;99026;-76
2022/05/14 02:02:40;;;;;;;19.35;5.32;;;;;;;;;;5007507;28;98587;-76
2022/05/14 02:05:11;;;;;;;27.80;5.47;;;;;;;;;;4992081;28;102203;-76
2022/05/14 02:07:38;;;;;;;12.68;4.22;;;;;;;;;;4992810;28;98694;-76
2022/05/14 02:10:05;;;;;;;23.20;5.30;;;;;;;;;;4992247;28;101422;-76
2022/05/14 02:12:33;;;;;;;26.77;4.80;;;;;;;;;;4992398;28;101395;-76
2022/05/14 02:14:59;;;;;;;10.55;4.78;;;;;;;;;;5014096;28;98652;-76
2022/05/14 02:17:28;;;;;;;16.67;4.57;;;;;;;;;;4991476;28;101366;-76
2022/05/14 02:19:55;;;;;;;17.98;5.63;;;;;;;;;;4992834;28;98639;-76
2022/05/14 02:22:21;;;;;;;18.58;5.60;;;;;;;;;;4992967;28;101053;-76
2022/05/14 02:24:48;;;;;;;15.65;5.28;;;;;;;;;;4991669;28;101500;-76
2022/05/14 02:27:15;;;;;;;25.05;5.95;;;;;;;;;;4992458;28;98621;-76
2022/05/14 02:29:50;;;;;;;17.95;6.10;;;;;;;;;;4991314;28;100987;-75
2022/05/14 02:32:18;;;;;;;17.15;5.88;;;;;;;;;;5010499;28;99083;-75
2022/05/14 02:34:45;;;;;;;22.88;6.03;;;;;;;;;;5010392;28;98589;-76
2022/05/14 02:37:12;;;;;;;23.73;6.25;;;;;;;;;;5012908;28;99924;-76
2022/05/14 02:39:38;;;;;;;18.40;7.03;;;;;;;;;;5010356;28;99377;-76
2022/05/14 02:42:05;;;;;;;16.30;6.70;;;;;;;;;;5010324;28;99939;-75
2022/05/14 02:44:31;;;;;;;23.75;6.30;;;;;;;;;;5009500;28;99685;-76
2022/05/14 02:46:57;;;;;;;16.13;5.90;;;;;;;;;;5010918;28;97766;-73
2022/05/14 02:49:24;;;;;;;14.07;6.47;;;;;;;;;;5010355;28;98646;-76
2022/05/14 02:51:50;;;;;;;18.92;6.60;;;;;;;;;;5009411;28;98957;-76
2022/05/14 02:54:17;;;;;;;18.77;6.65;;;;;;;;;;4991695;28;99328;-75
2022/05/14 02:56:43;;;;;;;22.75;7.13;;;;;;;;;;4991885;28;100658;-76
2022/05/14 02:59:09;;;;;;;13.60;6.43;;;;;;;;;;5012659;28;99527;-74
2022/05/14 03:01:47;;;;;;;16.50;6.40;;;;;;;;;;4991957;28;99085;-74
2022/05/14 03:04:23;;;;;;;20.98;6.07;;;;;;;;;;4991578;28;101248;-75
2022/05/14 03:06:50;;;;;;;18.50;6.63;;;;;;;;;;5009244;28;98637;-74
2022/05/14 03:09:16;;;;;;;18.65;6.50;;;;;;;;;;4992085;28;101338;-74
2022/05/14 03:11:43;;;;;;;20.27;6.30;;;;;;;;;;4991289;28;98562;-74
2022/05/14 03:14:11;;;;;;;12.68;6.13;;;;;;;;;;4992019;28;98957;-74
2022/05/14 03:16:39;;;;;;;18.13;6.40;;;;;;;;;;4991933;28;101512;-74
2022/05/14 03:19:06;;;;;;;27.25;7.25;;;;;;;;;;4990424;28;100252;-74
2022/05/14 03:21:33;;;;;;;24.30;7.63;;;;;;;;;;5012364;28;98520;-74
2022/05/14 03:23:59;;;;;;;17.85;7.10;;;;;;;;;;4991272;28;101919;-75
2022/05/14 03:26:26;;;;;;;27.00;7.53;;;;;;;;;;5008731;28;99608;-75
2022/05/14 03:28:52;;;;;;;17.83;6.93;;;;;;;;;;4991583;28;101581;-74
2022/05/14 03:31:19;;;;;;;21.75;7.28;;;;;;;;;;4991646;28;100265;-74
2022/05/14 03:33:46;;;;;;;25.00;8.30;;;;;;;;;;4990500;28;98720;-74
2022/05/14 03:36:12;;;;;;;20.15;7.53;;;;;;;;;;4991666;28;100283;-75
2022/05/14 03:38:39;;;;;;;23.73;8.25;;;;;;;;;;4990514;28;99274;-74
2022/05/14 03:41:07;;;;;;;20.65;7.43;;;;;;;;;;4993993;28;98811;-75
2022/05/14 03:43:33;;;;;;;22.65;8.18;;;;;;;;;;5007752;28;99971;-74
2022/05/14 03:46:00;;;;;;;22.65;7.80;;;;;;;;;;5009354;28;99226;-75
2022/05/14 03:48:30;;;;;;;21.45;9.57;;;;;;;;;;4990279;28;99286;-75
2022/05/14 03:50:57;;;;;;;23.98;8.55;;;;;;;;;;4990729;28;100127;-75
2022/05/14 03:53:23;;;;;;;21.55;8.63;;;;;;;;;;5008800;28;98626;-75
2022/05/14 03:55:49;;;;;;;14.60;7.35;;;;;;;;;;5008805;28;99094;-75
2022/05/14 03:58:16;;;;;;;20.63;8.85;;;;;;;;;;4990730;28;99262;-75
2022/05/14 04:00:42;;;;;;;20.83;8.20;;;;;;;;;;4991468;28;98296;-75
2022/05/14 04:03:09;;;;;;;27.52;9.77;;;;;;;;;;5011357;28;98647;-75
2022/05/14 04:05:36;;;;;;;25.50;8.98;;;;;;;;;;4990671;28;98820;-75
2022/05/14 04:08:03;;;;;;;22.80;9.15;;;;;;;;;;4990232;28;101020;-74
2022/05/14 04:10:30;;;;;;;28.23;9.73;;;;;;;;;;4990209;28;101767;-75
2022/05/14 04:12:58;;;;;;;21.85;9.23;;;;;;;;;;5008884;28;99377;-75
2022/05/14 04:15:26;;;;;;;24.95;9.00;;;;;;;;;;5007701;28;99010;-74
2022/05/14 04:17:53;;;;;;;33.95;10.00;;;;;;;;;;4989394;28;98553;-75
2022/05/14 04:20:21;;;;;;;22.17;9.55;;;;;;;;;;4990216;28;98682;-75
2022/05/14 04:22:48;;;;;;;28.05;9.68;;;;;;;;;;4990266;28;101738;-75
2022/05/14 04:25:14;;;;;;;27.25;8.70;;;;;;;;;;4994100;28;99556;-75
2022/05/14 04:27:42;;;;;;;36.13;9.18;;;;;;;;;;5008270;28;98868;-75
2022/05/14 04:30:09;;;;;;;36.58;10.73;;;;;;;;;;4989911;28;101818;-75
2022/05/14 04:32:36;;;;;;;30.48;9.55;;;;;;;;;;4989027;28;99307;-75
2022/05/14 04:35:02;;;;;;;24.23;10.18;;;;;;;;;;4990495;28;102087;-75
2022/05/14 04:37:29;;;;;;;33.40;10.43;;;;;;;;;;4988623;28;101877;-75
2022/05/14 04:39:55;;;;;;;34.95;10.35;;;;;;;;;;4989744;28;98691;-75
2022/05/14 04:42:22;;;;;;;27.55;9.55;;;;;;;;;;4989334;28;100039;-75
2022/05/14 04:44:48;;;;;;;30.17;9.25;;;;;;;;;;4989226;28;99324;-75
2022/05/14 04:47:16;;;;;;;22.77;9.05;;;;;;;;;;4993648;28;98647;-75
2022/05/14 04:49:44;;;;;;;24.58;9.10;;;;;;;;;;5008387;28;98541;-75
2022/05/14 04:52:12;;;;;;;24.88;9.13;;;;;;;;;;4989725;28;99015;-75
2022/05/14 04:54:39;;;;;;;29.85;9.25;;;;;;;;;;4989798;28;101263;-75
2022/05/14 04:57:05;;;;;;;32.80;9.75;;;;;;;;;;4989469;28;102580;-75
2022/05/14 04:59:33;;;;;;;22.55;8.73;;;;;;;;;;4989106;28;98646;-75
2022/05/14 05:04:46;;;;;;;30.15;8.98;;;;;;;;;;4989230;28;101177;-75
2022/05/14 05:07:13;;;;;;;33.28;10.18;;;;;;;;;;4990343;28;99176;-75
2022/05/14 05:09:43;;;;;;;31.17;9.50;;;;;;;;;;4992382;28;101195;-75
2022/05/14 05:12:10;;;;;;;23.27;9.05;;;;;;;;;;5006843;28;98528;-75
2022/05/14 05:14:37;;;;;;;35.17;9.70;;;;;;;;;;5008113;28;99495;-75
2022/05/14 05:17:03;;;;;;;28.25;9.20;;;;;;;;;;5007319;28;99355;-75
2022/05/14 05:19:30;;;;;;;32.22;10.30;;;;;;;;;;5006766;28;98590;-75
2022/05/14 05:21:57;;;;;;;23.50;8.98;;;;;;;;;;5006695;28;99930;-75
2022/05/14 05:24:23;;;;;;;23.67;8.73;;;;;;;;;;5007298;28;100462;-75
2022/05/14 05:26:49;;;;;;;29.90;9.50;;;;;;;;;;5006789;28;98556;-76
2022/05/14 05:29:16;;;;;;;23.33;8.73;;;;;;;;;;5011181;28;99081;-75
2022/05/14 05:31:42;;;;;;;33.97;10.15;;;;;;;;;;5010837;28;98527;-75
2022/05/14 05:34:08;;;;;;;30.67;9.43;;;;;;;;;;5009899;28;99776;-75
2022/05/14 05:36:35;;;;;;;25.20;9.43;;;;;;;;;;5010397;28;99521;-75
2022/05/14 05:39:01;;;;;;;32.45;9.35;;;;;;;;;;5011623;28;97934;-75
2022/05/14 05:41:28;;;;;;;31.05;8.65;;;;;;;;;;5009884;28;98614;-75
2022/05/14 05:43:55;;;;;;;23.73;8.27;;;;;;;;;;5010766;28;100556;-75
2022/05/14 05:46:21;;;;;;;36.28;9.05;;;;;;;;;;5010235;28;99236;-75
2022/05/14 05:48:48;;;;;;;16.67;6.78;;;;;;;;;;5010513;28;100525;-75
2022/05/14 05:51:14;;;;;;;32.13;9.48;;;;;;;;;;5014117;28;100442;-75
2022/05/14 05:59:10;;;;;;;22.30;8.25;;;;;;;;;;5010816;28;98547;-75
2022/05/14 06:01:37;;;;;;;27.30;9.10;;;;;;;;;;5009610;28;99204;-75
2022/05/14 06:04:03;;;;;;;26.92;8.65;;;;;;;;;;5010999;28;100041;-76
2022/05/14 06:06:30;;;;;;;33.72;9.85;;;;;;;;;;5010362;28;98585;-75
2022/05/14 06:08:56;;;;;;;32.15;9.57;;;;;;;;;;5009448;28;99220;-75
2022/05/14 06:11:22;;;;;;;24.13;8.15;;;;;;;;;;5009412;28;100405;-75
2022/05/14 06:13:50;;;;;;;30.17;8.90;;;;;;;;;;5013705;28;98503;-75
2022/05/14 06:16:16;;;;;;;30.95;8.13;;;;;;;;;;5009554;28;100083;-75
2022/05/14 06:18:44;;;;;;;26.95;8.40;;;;;;;;;;5009947;28;98505;-75
2022/05/14 06:21:11;;;;;;;24.95;8.85;;;;;;;;;;5009914;28;99207;-75
2022/05/14 06:23:37;;;;;;;30.90;8.60;;;;;;;;;;5008860;28;99364;-76
2022/05/14 06:26:03;;;;;;;31.15;8.30;;;;;;;;;;5010064;28;98631;-76
2022/05/14 06:28:30;;;;;;;25.95;8.80;;;;;;;;;;5010193;28;100359;-76
2022/05/14 06:30:57;;;;;;;25.73;7.72;;;;;;;;;;5009690;28;100492;-76
2022/05/14 06:33:26;;;;;;;23.77;7.25;;;;;;;;;;5009756;28;99349;-76
2022/05/14 06:35:53;;;;;;;28.60;7.53;;;;;;;;;;5012438;28;99953;-76
2022/05/14 06:38:19;;;;;;;22.00;7.22;;;;;;;;;;5010381;28;98559;-76
2022/05/14 06:40:46;;;;;;;24.73;6.80;;;;;;;;;;5009215;28;98508;-76
2022/05/14 06:43:15;;;;;;;29.40;7.65;;;;;;;;;;5008817;28;99446;-76
2022/05/14 06:45:43;;;;;;;29.08;7.93;;;;;;;;;;5009789;28;98564;-76
2022/05/14 06:48:09;;;;;;;24.02;7.53;;;;;;;;;;5009952;28;99389;-77
2022/05/14 06:50:39;;;;;;;22.65;7.15;;;;;;;;;;5009178;28;100208;-76
2022/05/14 06:53:06;;;;;;;26.20;7.13;;;;;;;;;;5010685;28;97895;-74
2022/05/14 06:55:35;;;;;;;26.45;7.47;;;;;;;;;;5009819;28;99486;-76
2022/05/14 06:58:02;;;;;;;25.25;7.15;;;;;;;;;;5012442;28;100325;-75
2022/05/14 07:00:28;;;;;;;24.60;6.72;;;;;;;;;;5009017;28;99247;-75
2022/05/14 07:06:37;;;;;;;20.30;6.38;;;;;;;;;;5009602;28;100431;-75
2022/05/14 07:08:27;;;;;;;29.80;6.95;;;;;;;;;;5009338;28;98634;-75
2022/05/14 07:10:53;;;;;;;26.45;7.60;;;;;;;;;;5008878;28;100340;-75
2022/05/14 07:13:19;;;;;;;26.55;6.95;;;;;;;;;;5009350;28;98595;-75
2022/05/14 07:15:45;;;;;;;23.23;7.80;;;;;;;;;;5009669;28;99861;-75
2022/05/14 07:18:12;;;;;;;23.48;6.65;;;;;;;;;;5008989;28;98593;-75
2022/05/14 07:20:38;;;;;;;20.83;6.75;;;;;;;;;;5012802;28;99035;-75
2022/05/14 07:23:05;;;;;;;24.50;7.20;;;;;;;;;;5008713;28;99328;-75
2022/05/14 07:25:31;;;;;;;24.52;7.00;;;;;;;;;;5008172;28;99336;-75
2022/05/14 07:27:58;;;;;;;26.48;7.80;;;;;;;;;;5009362;28;100703;-75
2022/05/14 07:30:24;;;;;;;22.40;6.78;;;;;;;;;;5008912;28;100014;-75
2022/05/14 07:32:51;;;;;;;20.83;6.70;;;;;;;;;;5009215;28;99448;-75
2022/05/14 07:35:17;;;;;;;17.23;6.00;;;;;;;;;;5009633;28;99839;-75
2022/05/14 07:37:45;;;;;;;23.17;6.90;;;;;;;;;;5008359;28;100141;-75
2022/05/14 07:40:17;;;;;;;27.02;7.40;;;;;;;;;;5012119;28;98496;-75
2022/05/14 07:42:50;;;;;;;21.02;6.18;;;;;;;;;;5009514;28;99798;-75
2022/05/14 07:45:19;;;;;;;23.20;7.22;;;;;;;;;;5008833;28;98590;-75
2022/05/14 07:47:45;;;;;;;23.75;7.20;;;;;;;;;;5008629;28;101048;-75
2022/05/14 07:50:12;;;;;;;18.80;5.85;;;;;;;;;;5007865;28;100675;-76
2022/05/14 07:52:39;;;;;;;28.60;6.25;;;;;;;;;;5007622;28;98655;-76
2022/05/14 07:55:05;;;;;;;17.52;6.10;;;;;;;;;;5008177;28;100165;-76
2022/05/14 07:57:32;;;;;;;24.00;5.90;;;;;;;;;;5008133;28;99492;-76
2022/05/14 07:59:58;;;;;;;18.58;5.80;;;;;;;;;;5009146;28;99139;-76
2022/05/14 08:02:34;;;;;;;27.40;6.53;;;;;;;;;;5011172;28;100088;-76
2022/05/14 08:05:03;;;;;;;19.33;6.75;;;;;;;;;;5008858;28;98617;-76
2022/05/14 08:07:31;;;;;;;20.33;6.13;;;;;;;;;;5008066;28;99026;-76
2022/05/14 08:09:58;;;;;;;18.95;5.72;;;;;;;;;;5008716;28;100276;-76
2022/05/14 08:12:25;;;;;;;28.77;6.20;;;;;;;;;;5008529;28;98602;-76
2022/05/14 08:14:51;;;;;;;20.23;5.75;;;;;;;;;;5007795;28;100097;-76
2022/05/14 08:17:18;;;;;;;20.23;5.68;;;;;;;;;;5008433;28;100288;-76
2022/05/14 08:19:44;;;;;;;18.65;5.97;;;;;;;;;;5008546;28;98568;-76
2022/05/14 08:24:55;;;;;;;22.98;6.18;;;;;;;;;;5011321;28;99596;-76
2022/05/14 08:27:21;;;;;;;18.33;5.97;;;;;;;;;;5007877;28;98919;-76
2022/05/14 08:29:48;;;;;;;25.77;5.45;;;;;;;;;;5007220;28;100511;-76
2022/05/14 08:32:18;;;;;;;21.85;5.90;;;;;;;;;;5009072;28;97847;-76
2022/05/14 08:34:45;;;;;;;19.52;5.90;;;;;;;;;;5008476;28;99691;-76
2022/05/14 08:37:12;;;;;;;18.98;5.68;;;;;;;;;;5007532;28;100177;-76
2022/05/14 08:39:38;;;;;;;25.17;6.10;;;;;;;;;;5007904;28;99355;-76
2022/05/14 08:42:06;;;;;;;20.98;5.68;;;;;;;;;;5008331;28;100677;-76
2022/05/14 08:44:33;;;;;;;23.58;6.38;;;;;;;;;;5007104;28;100598;-76
2022/05/14 08:47:03;;;;;;;21.52;6.25;;;;;;;;;;5011737;28;98649;-76
2022/05/14 08:49:34;;;;;;;16.90;5.47;;;;;;;;;;5007219;28;100478;-76
2022/05/14 08:52:04;;;;;;;18.25;5.97;;;;;;;;;;5008599;28;98511;-76
2022/05/14 08:54:32;;;;;;;21.45;5.93;;;;;;;;;;5008316;28;100514;-76
2022/05/14 08:56:58;;;;;;;26.02;7.28;;;;;;;;;;5007988;28;100055;-76
2022/05/14 08:59:25;;;;;;;24.95;6.10;;;;;;;;;;5007979;28;98560;-75
2022/05/14 09:01:52;;;;;;;18.75;6.60;;;;;;;;;;5008090;28;99400;-76
2022/05/14 09:04:20;;;;;;;21.73;5.78;;;;;;;;;;5007135;28;101199;-76
2022/05/14 09:06:47;;;;;;;23.15;5.80;;;;;;;;;;5011754;28;98604;-76
2022/05/14 09:09:14;;;;;;;19.83;5.78;;;;;;;;;;5014728;28;100308;-76
2022/05/14 09:11:45;;;;;;;20.70;5.80;;;;;;;;;;5011120;28;99840;-76
2022/05/14 09:14:11;;;;;;;;;;;;;;;;;;5012245;28;100328;-76
2022/05/14 09:16:38;;;;;;;20.42;6.38;;;;;;;;;;5012473;28;100462;-76
2022/05/14 09:19:15;;;;;;;26.17;6.65;;;;;;;;;;5010409;28;98615;-76
2022/05/14 09:21:52;;;;;;;30.67;6.03;;;;;;;;;;5011761;28;100356;-76
2022/05/14 09:24:29;;;;;;;22.35;6.07;;;;;;;;;;5011101;28;100555;-76
2022/05/14 09:26:56;;;;;;;19.85;6.00;;;;;;;;;;5010877;28;98541;-76
2022/05/14 09:29:38;;;;;;;19.90;5.22;;;;;;;;;;5010278;28;99746;-76
2022/05/14 09:32:17;;;;;;;17.60;6.03;;;;;;;;;;5013524;28;100931;-76
2022/05/14 09:34:43;;;;;;;20.40;5.57;;;;;;;;;;5011161;28;100252;-76
2022/05/14 09:37:30;;;;;;;32.20;6.43;;;;;;;;;;5010264;28;99433;-76
2022/05/14 09:39:57;;;;;;;19.98;5.82;;;;;;;;;;5010736;28;98572;-76
2022/05/14 09:42:30;;;;;;;20.50;6.00;;;;;;;;;;5011169;28;100293;-75
2022/05/14 09:44:57;;;;;;;21.40;6.07;;;;;;;;;;5010822;28;100028;-76
2022/05/14 09:47:25;;;;;;;22.90;5.97;;;;;;;;;;5010532;28;97981;-75
2022/05/14 09:49:53;;;;;;;24.92;5.88;;;;;;;;;;5011172;28;99312;-75
2022/05/14 09:52:23;;;;;;;19.95;5.55;;;;;;;;;;5013579;28;99562;-75
2022/05/14 09:54:50;;;;;;;17.42;5.75;;;;;;;;;;5009854;28;99872;-76
2022/05/14 09:57:28;;;;;;;16.98;5.38;;;;;;;;;;5010412;28;100539;-76
2022/05/14 10:00:07;;;;;;;21.88;6.05;;;;;;;;;;5009775;28;99540;-76
2022/05/14 10:02:58;;;;;;;21.02;5.82;;;;;;;;;;5010557;28;99824;-76
2022/05/14 10:05:43;;;;;;;19.08;5.97;;;;;;;;;;5009383;28;99597;-76
2022/05/14 10:08:24;;;;;;;14.20;4.72;;;;;;;;;;5009674;28;98601;-76
2022/05/14 10:11:12;;;;;;;25.83;5.93;;;;;;;;;;5011043;28;100067;-76
2022/05/14 10:13:46;;;;;;;19.45;5.15;;;;;;;;;;5009875;28;99016;-75
2022/05/14 10:16:30;;;;;;;29.02;6.78;;;;;;;;;;5012596;28;98618;-75
2022/05/14 10:19:05;;;;;;;19.02;6.10;;;;;;;;;;5010660;28;100556;-75
2022/05/14 10:21:43;;;;;;;18.52;5.57;;;;;;;;;;5009306;28;100151;-75
2022/05/14 10:27:00;;;;;;;20.75;5.88;;;;;;;;;;5009888;28;100511;-75
2022/05/14 10:29:30;;;;;;;16.20;5.22;;;;;;;;;;5009455;28;98581;-75
2022/05/14 10:32:00;;;;;;;23.45;6.85;;;;;;;;;;5010734;28;100285;-75
2022/05/14 10:34:38;;;;;;;19.15;5.43;;;;;;;;;;4991813;28;99422;-76
2022/05/14 10:37:25;;;;;;;17.85;5.82;;;;;;;;;;5008943;28;99010;-76
2022/05/14 10:40:15;;;;;;;22.05;6.32;;;;;;;;;;4981716;28;99187;-75
2022/05/14 10:42:57;;;;;;;19.05;5.70;;;;;;;;;;5009871;28;98527;-76
2022/05/14 10:45:30;;;;;;;16.42;5.57;;;;;;;;;;5009781;28;100291;-76
2022/05/14 10:48:15;;;;;;;19.92;6.05;;;;;;;;;;5009468;28;100022;-76
2022/05/14 10:50:41;;;;;;;25.23;5.78;;;;;;;;;;5009274;28;98564;-75
2022/05/14 10:53:08;;;;;;;18.52;5.40;;;;;;;;;;5010405;28;99842;-76
2022/05/14 10:55:47;;;;;;;20.38;5.63;;;;;;;;;;5008728;28;99420;-76
2022/05/14 10:58:20;;;;;;;16.58;5.97;;;;;;;;;;5009512;28;99204;-76
2022/05/14 11:00:48;;;;;;;16.75;5.55;;;;;;;;;;4992152;28;101642;-75
2022/05/14 11:03:24;;;;;;;19.80;5.32;;;;;;;;;;5011953;28;99425;-76
2022/05/14 11:06:02;;;;;;;23.95;5.53;;;;;;;;;;5010544;28;99965;-76
2022/05/14 11:08:55;;;;;;;23.38;6.47;;;;;;;;;;5009340;28;99224;-75
2022/05/14 11:11:28;;;;;;;19.02;5.95;;;;;;;;;;5005826;28;98568;-76
2022/05/14 11:13:56;;;;;;;20.75;5.80;;;;;;;;;;5009447;28;99947;-76
2022/05/14 11:16:33;;;;;;;15.05;5.00;;;;;;;;;;5009238;28;100251;-76
2022/05/14 11:19:03;;;;;;;14.25;4.65;;;;;;;;;;5008986;28;99230;-76
2022/05/14 11:21:35;;;;;;;18.00;5.40;;;;;;;;;;5009339;28;100984;-76
2022/05/14 11:24:02;;;;;;;17.45;4.95;;;;;;;;;;5008091;28;99516;-75
2022/05/14 11:26:28;;;;;;;21.85;4.95;;;;;;;;;;5012532;28;99219;-75
2022/05/14 11:28:59;;;;;;;16.20;4.88;;;;;;;;;;5008566;28;99504;-75
2022/05/14 11:31:29;;;;;;;18.92;4.40;;;;;;;;;;5009313;28;97912;-76
2022/05/14 11:33:57;;;;;;;21.30;6.35;;;;;;;;;;5010030;28;100249;-76
2022/05/14 11:36:25;;;;;;;16.70;5.68;;;;;;;;;;5008780;28;99465;-75
2022/05/14 11:39:06;;;;;;;17.20;5.80;;;;;;;;;;5008344;28;99635;-75
2022/05/14 11:41:35;;;;;;;18.98;5.72;;;;;;;;;;5008916;28;101053;-76
2022/05/14 11:44:04;;;;;;;20.25;5.43;;;;;;;;;;5008884;28;100214;-76
2022/05/14 11:46:40;;;;;;;18.50;5.35;;;;;;;;;;5008285;28;98609;-76
2022/05/14 11:49:10;;;;;;;16.23;5.32;;;;;;;;;;5011919;28;99368;-76
2022/05/14 11:51:54;;;;;;;24.20;6.25;;;;;;;;;;5009105;28;98618;-76
2022/05/14 11:54:24;;;;;;;18.92;5.20;;;;;;;;;;5008717;28;99985;-77
2022/05/14 11:56:57;;;;;;;16.60;5.05;;;;;;;;;;5009496;28;99462;-76
2022/05/14 11:59:38;;;;;;;24.25;5.90;;;;;;;;;;5008042;28;98653;-77
2022/05/14 12:02:06;;;;;;;12.38;4.28;;;;;;;;;;5009165;28;99861;-76
2022/05/14 12:04:34;;;;;;;23.15;4.63;;;;;;;;;;5007886;28;101113;-77
2022/05/14 12:07:22;;;;;;;16.95;4.60;;;;;;;;;;5008108;28;98781;-76
2022/05/14 12:10:07;;;;;;;16.92;4.88;;;;;;;;;;5012081;28;99957;-77
2022/05/14 12:12:48;;;;;;;21.40;5.85;;;;;;;;;;5007767;28;98672;-76
2022/05/14 12:15:18;;;;;;;18.77;5.05;;;;;;;;;;5007551;28;99445;-76
2022/05/14 12:17:46;;;;;;;13.17;5.17;;;;;;;;;;5007998;28;99175;-77
2022/05/14 12:20:17;;;;;;;17.83;4.93;;;;;;;;;;5008714;28;98521;-77
2022/05/14 12:22:50;;;;;;;14.45;5.22;;;;;;;;;;5009096;28;100030;-77
2022/05/14 12:25:17;;;;;;;21.42;5.60;;;;;;;;;;5008374;28;100275;-76
2022/05/14 12:27:47;;;;;;;19.13;4.85;;;;;;;;;;5007586;28;99092;-76
2022/05/14 12:33:11;;;;;;;20.52;4.93;;;;;;;;;;5008191;28;99695;-77
2022/05/14 12:33:12;;;;;;;11.32;4.18;;;;;;;;;;5011760;28;100241;-77
2022/05/14 12:35:42;;;;;;;17.05;4.40;;;;;;;;;;5007656;28;100657;-77
2022/05/14 12:38:09;;;;;;;12.85;4.28;;;;;;;;;;5008242;28;100846;-76
2022/05/14 12:40:37;;;;;;;17.90;5.18;;;;;;;;;;5007950;28;99178;-77
2022/05/14 12:43:05;;;;;;;14.88;5.00;;;;;;;;;;5007784;28;99071;-76
2022/05/14 12:45:36;;;;;;;15.85;4.95;;;;;;;;;;5007451;28;102086;-76
2022/05/14 12:48:03;;;;;;;15.57;4.75;;;;;;;;;;5009039;28;97731;-76
2022/05/14 12:50:36;;;;;;;13.18;5.03;;;;;;;;;;5007322;28;99393;-76
2022/05/14 12:53:05;;;;;;;20.75;5.15;;;;;;;;;;5007981;28;100360;-76
2022/05/14 12:55:35;;;;;;;15.60;4.95;;;;;;;;;;5010341;28;99274;-76
2022/05/14 12:58:02;;;;;;;22.33;5.18;;;;;;;;;;5007643;28;99744;-76
2022/05/14 13:00:29;;;;;;;21.05;5.80;;;;;;;;;;5007584;28;99478;-77
2022/05/14 13:02:55;;;;;;;13.07;4.60;;;;;;;;;;5007474;28;99917;-74
2022/05/14 13:05:39;;;;;;;15.98;4.70;;;;;;;;;;5007613;28;100402;-77
2022/05/14 13:08:08;;;;;;;20.63;4.80;;;;;;;;;;5008334;28;98938;-75
2022/05/14 13:10:34;;;;;;;14.05;4.85;;;;;;;;;;5006944;28;99156;-75
2022/05/14 13:13:03;;;;;;;15.95;4.47;;;;;;;;;;5007757;28;98825;-75
2022/05/14 13:15:31;;;;;;;15.43;4.50;;;;;;;;;;5007632;28;98526;-75
2022/05/14 13:17:58;;;;;;;14.35;4.45;;;;;;;;;;5010246;28;100927;-76
2022/05/14 13:20:32;;;;;;;16.60;4.65;;;;;;;;;;5006924;28;99322;-76
2022/05/14 13:23:02;;;;;;;10.95;4.25;;;;;;;;;;5007762;28;100079;-76
2022/05/14 13:25:34;;;;;;;17.30;4.95;;;;;;;;;;5006770;28;100356;-77
2022/05/14 13:28:17;;;;;;;20.85;5.13;;;;;;;;;;5006978;28;98745;-76
2022/05/14 13:30:45;;;;;;;13.10;4.47;;;;;;;;;;5006970;28;100340;-76
2022/05/14 13:33:25;;;;;;;15.43;4.68;;;;;;;;;;5007616;28;99222;-76
2022/05/14 13:38:41;;;;;;;14.00;3.83;;;;;;;;;;5007394;28;100002;-76
2022/05/14 13:41:29;;;;;;;14.75;4.10;;;;;;;;;;5010713;28;100125;-76
2022/05/14 13:44:01;;;;;;;15.40;5.47;;;;;;;;;;5006516;28;100029;-76
2022/05/14 13:46:38;;;;;;;14.85;4.22;;;;;;;;;;5005913;28;101252;-76
2022/05/14 13:49:05;;;;;;;18.48;4.70;;;;;;;;;;5007946;28;98526;-76
2022/05/14 13:51:36;;;;;;;14.90;4.47;;;;;;;;;;5009705;28;100124;-76
2022/05/14 13:54:06;;;;;;;17.15;4.45;;;;;;;;;;5010300;28;100406;-76
2022/05/14 13:56:33;;;;;;;19.13;4.82;;;;;;;;;;5010295;28;98553;-76
2022/05/14 13:59:01;;;;;;;14.65;4.05;;;;;;;;;;5010388;28;99957;-76
2022/05/14 14:01:32;;;;;;;11.75;4.45;;;;;;;;;;5010284;28;100148;-75
2022/05/14 14:03:59;;;;;;;18.73;5.37;;;;;;;;;;5014608;28;98337;-76
2022/05/14 14:06:28;;;;;;;14.60;4.25;;;;;;;;;;5009552;28;101578;-76
2022/05/14 14:08:55;;;;;;;17.27;4.60;;;;;;;;;;5010645;28;98626;-76
2022/05/14 14:11:22;;;;;;;16.90;5.80;;;;;;;;;;5010058;28;100343;-76
2022/05/14 14:13:48;;;;;;;15.80;5.70;;;;;;;;;;5009262;28;99370;-75
2022/05/14 14:16:15;;;;;;;17.83;4.63;;;;;;;;;;5010502;28;98540;-75
2022/05/14 14:18:41;;;;;;;18.05;5.32;;;;;;;;;;5010175;28;99191;-75
2022/05/14 14:21:09;;;;;;;14.60;4.70;;;;;;;;;;5009627;28;100433;-75
2022/05/14 14:23:38;;;;;;;15.68;5.18;;;;;;;;;;5013921;28;100020;-76
2022/05/14 14:26:05;;;;;;;17.70;5.05;;;;;;;;;;5010182;28;99290;-75
2022/05/14 14:28:32;;;;;;;22.15;5.72;;;;;;;;;;5009499;28;97787;-75
2022/05/14 14:31:03;;;;;;;15.40;5.18;;;;;;;;;;5010514;28;99137;-75
2022/05/14 14:33:32;;;;;;;22.75;5.18;;;;;;;;;;5009590;28;100145;-76
2022/05/14 14:35:58;;;;;;;21.92;4.82;;;;;;;;;;5009275;28;99723;-75
2022/05/14 14:38:25;;;;;;;16.92;4.93;;;;;;;;;;5009633;28;99613;-76
2022/05/14 14:40:51;;;;;;;11.65;3.97;;;;;;;;;;5010041;28;100618;-75
2022/05/14 14:43:17;;;;;;;18.13;5.43;;;;;;;;;;5009270;28;98560;-75
2022/05/14 14:45:44;;;;;;;13.90;5.22;;;;;;;;;;5012877;28;100165;-74
2022/05/14 14:48:12;;;;;;;30.42;22.15;;;;;;;;;;5009517;28;98568;-75
2022/05/14 14:50:39;;;;;;;20.15;6.18;;;;;;;;;;5008992;28;100177;-76
2022/05/14 14:53:05;;;;;;;20.13;5.13;;;;;;;;;;5010129;28;99864;-76
2022/05/14 14:55:32;;;;;;;18.17;5.75;;;;;;;;;;5009050;28;98801;-76
2022/05/14 14:57:58;;;;;;;22.48;5.25;;;;;;;;;;5010010;28;100041;-76
2022/05/14 15:00:25;;;;;;;22.80;5.97;;;;;;;;;;5008800;28;100992;-76